createdAt,value
2023-06-22T00:00:44.987Z,73.21
2023-06-22T00:02:48.550Z,73.02
2023-06-22T00:04:51.994Z,72.67
2023-06-22T00:06:55.418Z,72.41
2023-06-22T00:08:58.764Z,72.31
2023-06-22T00:11:03.542Z,71.45
2023-06-22T00:13:06.617Z,71.87
2023-06-22T00:15:10.547Z,71.99
2023-06-22T00:17:13.917Z,72.14
2023-06-22T00:19:17.676Z,71.90
2023-06-22T00:21:21.579Z,72.15
2023-06-22T00:23:24.994Z,72.08
2023-06-22T00:25:28.456Z,72.00
2023-06-22T00:27:33.197Z,71.98
2023-06-22T00:29:36.264Z,71.48
2023-06-22T00:31:39.701Z,71.57
2023-06-22T00:33:43.050Z,71.21
2023-06-22T00:35:46.399Z,71.03
2023-06-22T00:37:49.787Z,70.87
2023-06-22T00:39:53.202Z,71.25
2023-06-22T00:41:57.438Z,71.28
2023-06-22T00:44:02.215Z,71.31
2023-06-22T00:46:05.657Z,72.12
2023-06-22T00:48:10.703Z,72.54
2023-06-22T00:50:22.077Z,72.60
2023-06-22T00:52:30.251Z,72.64
2023-06-22T00:54:33.669Z,72.63
2023-06-22T00:56:38.850Z,72.93
2023-06-22T00:58:42.862Z,72.74
2023-06-22T01:00:47.930Z,72.78
2023-06-22T01:02:52.862Z,73.45
2023-06-22T01:04:56.674Z,73.34
2023-06-22T01:07:08.933Z,73.36
2023-06-22T01:09:17.736Z,73.88
2023-06-22T01:11:25.948Z,73.90
2023-06-22T01:13:38.066Z,73.64
2023-06-22T01:15:47.299Z,73.81
2023-06-22T01:17:54.870Z,73.98
2023-06-22T01:19:58.934Z,73.89
2023-06-22T01:22:04.028Z,74.29
2023-06-22T01:24:24.618Z,74.55
2023-06-22T01:26:37.313Z,75.18
2023-06-22T01:28:50.751Z,75.36
2023-06-22T01:31:04.678Z,75.42
2023-06-22T01:33:08.707Z,75.90
2023-06-22T01:35:13.230Z,76.66
2023-06-22T01:37:17.771Z,76.74
2023-06-22T01:39:21.815Z,77.20
2023-06-22T01:41:28.431Z,77.51
2023-06-22T01:43:32.601Z,77.52
2023-06-22T01:45:37.347Z,77.65
2023-06-22T01:47:41.073Z,77.73
2023-06-22T01:49:47.013Z,77.12
2023-06-22T01:51:50.414Z,77.13
2023-06-22T01:53:53.763Z,76.77
2023-06-22T01:55:58.073Z,76.67
2023-06-22T01:58:01.524Z,77.22
2023-06-22T02:00:07.421Z,76.69
2023-06-22T02:02:28.076Z,77.18
2023-06-22T02:04:37.764Z,77.18
2023-06-22T02:06:44.618Z,77.20
2023-06-22T02:08:52.135Z,77.58
2023-06-22T02:10:57.881Z,77.16
2023-06-22T02:13:01.862Z,76.93
2023-06-22T02:15:06.872Z,77.25
2023-06-22T02:17:11.732Z,77.13
2023-06-22T02:19:19.717Z,76.98
2023-06-22T02:21:23.850Z,76.92
2023-06-22T02:23:27.859Z,76.75
2023-06-22T02:25:31.300Z,76.62
2023-06-22T02:27:34.717Z,76.58
2023-06-22T02:29:38.347Z,76.53
2023-06-22T02:31:41.831Z,76.90
2023-06-22T02:33:47.084Z,76.95
2023-06-22T02:35:52.018Z,76.92
2023-06-22T02:37:55.631Z,77.28
2023-06-22T02:39:58.940Z,77.49
2023-06-22T02:42:02.592Z,77.93
2023-06-22T02:44:06.412Z,78.34
2023-06-22T02:46:09.748Z,78.51
2023-06-22T02:48:13.596Z,78.86
2023-06-22T02:50:17.131Z,79.07
2023-06-22T02:52:22.377Z,79.18
2023-06-22T02:54:25.516Z,79.24
2023-06-22T02:56:31.582Z,78.95
2023-06-22T02:58:39.867Z,78.81
2023-06-22T03:00:47.006Z,78.64
2023-06-22T03:02:51.625Z,78.72
2023-06-22T03:04:56.212Z,78.74
2023-06-22T03:07:02.625Z,78.95
2023-06-22T03:09:09.644Z,79.10
2023-06-22T03:11:14.053Z,79.12
2023-06-22T03:13:18.067Z,79.31
2023-06-22T03:15:23.168Z,79.56
2023-06-22T03:17:28.360Z,79.79
2023-06-22T03:19:32.519Z,80.14
2023-06-22T03:21:36.125Z,80.34
2023-06-22T03:23:39.500Z,80.73
2023-06-22T03:25:45.862Z,81.15
2023-06-22T03:27:49.436Z,81.51
2023-06-22T03:29:52.772Z,81.44
2023-06-22T03:31:56.300Z,81.88
2023-06-22T03:33:59.784Z,81.76
2023-06-22T03:36:03.193Z,81.63
2023-06-22T03:38:06.577Z,82.33
2023-06-22T03:40:11.112Z,82.59
2023-06-22T03:42:15.928Z,82.52
2023-06-22T03:44:19.271Z,82.98
2023-06-22T03:46:22.738Z,83.59
2023-06-22T03:48:26.288Z,83.32
2023-06-22T03:50:30.177Z,83.55
2023-06-22T03:52:33.858Z,83.82
2023-06-22T03:54:37.208Z,84.02
2023-06-22T03:56:40.600Z,84.00
2023-06-22T03:58:46.214Z,84.16
2023-06-22T04:00:50.202Z,84.16
2023-06-22T04:02:53.845Z,84.39
2023-06-22T04:04:57.293Z,84.54
2023-06-22T04:07:01.114Z,84.24
2023-06-22T04:09:04.708Z,84.12
2023-06-22T04:11:08.011Z,83.89
2023-06-22T04:13:11.760Z,84.57
2023-06-22T04:15:16.795Z,84.88
2023-06-22T04:17:20.565Z,84.77
2023-06-22T04:19:24.531Z,84.29
2023-06-22T04:21:27.926Z,84.13
2023-06-22T04:23:31.243Z,84.36
2023-06-22T04:25:34.633Z,84.42
2023-06-22T04:27:41.385Z,84.16
2023-06-22T04:29:50.167Z,84.04
2023-06-22T04:31:57.358Z,83.96
2023-06-22T04:34:07.265Z,84.01
2023-06-22T04:36:14.460Z,84.00
2023-06-22T04:38:17.834Z,83.83
2023-06-22T04:40:21.275Z,84.01
2023-06-22T04:42:24.653Z,84.01
2023-06-22T04:44:28.386Z,83.88
2023-06-22T04:46:31.758Z,83.89
2023-06-22T04:48:36.556Z,83.51
2023-06-22T04:50:40.651Z,83.79
2023-06-22T04:52:44.008Z,83.70
2023-06-22T04:54:50.065Z,83.74
2023-06-22T04:56:57.892Z,83.83
2023-06-22T04:59:01.456Z,83.60
2023-06-22T05:01:05.163Z,83.88
2023-06-22T05:03:20.026Z,83.71
2023-06-22T05:05:25.652Z,83.60
2023-06-22T05:07:29.183Z,83.26
2023-06-22T05:09:34.870Z,83.26
2023-06-22T05:11:38.229Z,83.00
2023-06-22T05:13:41.815Z,82.91
2023-06-22T05:15:45.441Z,82.57
2023-06-22T05:17:48.895Z,82.54
2023-06-22T05:19:52.335Z,82.35
2023-06-22T05:21:57.076Z,82.03
2023-06-22T05:24:01.510Z,81.54
2023-06-22T05:26:04.888Z,81.58
2023-06-22T05:28:12.900Z,81.20
2023-06-22T05:30:18.343Z,81.38
2023-06-22T05:32:23.416Z,82.06
2023-06-22T05:34:27.195Z,82.61
2023-06-22T05:36:30.547Z,82.96
2023-06-22T05:38:35.484Z,82.85
2023-06-22T05:40:38.906Z,82.68
2023-06-22T05:42:42.247Z,82.42
2023-06-22T05:44:45.680Z,82.32
2023-06-22T05:46:51.079Z,81.91
2023-06-22T05:48:54.482Z,81.35
2023-06-22T05:50:58.020Z,80.46
2023-06-22T05:53:01.334Z,80.02
2023-06-22T05:55:07.103Z,79.58
2023-06-22T05:57:10.443Z,78.24
2023-06-22T05:59:13.832Z,74.48
2023-06-22T06:01:17.981Z,69.40
2023-06-22T06:03:21.504Z,64.67
2023-06-22T06:05:26.702Z,61.75
2023-06-22T06:07:30.216Z,59.51
2023-06-22T06:09:33.564Z,56.90
2023-06-22T06:11:38.474Z,54.47
2023-06-22T06:13:42.593Z,53.04
2023-06-22T06:15:46.268Z,52.90
2023-06-22T06:17:50.436Z,52.77
2023-06-22T06:19:54.028Z,52.76
2023-06-22T06:21:57.819Z,53.90
2023-06-22T06:24:01.472Z,56.29
2023-06-22T06:26:08.359Z,57.42
2023-06-22T06:28:13.473Z,58.58
2023-06-22T06:30:18.124Z,58.96
2023-06-22T06:32:21.894Z,59.36
2023-06-22T06:34:25.438Z,57.82
2023-06-22T06:36:29.191Z,57.54
2023-06-22T06:38:33.274Z,59.77
2023-06-22T06:40:37.078Z,61.20
2023-06-22T06:42:43.149Z,61.35
2023-06-22T06:44:48.873Z,60.41
2023-06-22T06:46:52.489Z,60.40
2023-06-22T06:48:55.781Z,60.51
2023-06-22T06:50:59.145Z,60.14
2023-06-22T06:53:03.110Z,61.20
2023-06-22T06:55:09.266Z,60.94
2023-06-22T06:57:14.635Z,61.25
2023-06-22T06:59:18.184Z,60.86
2023-06-22T07:01:23.026Z,60.85
2023-06-22T07:03:26.434Z,59.90
2023-06-22T07:05:29.855Z,60.32
2023-06-22T07:07:34.341Z,59.97
2023-06-22T07:09:39.231Z,59.84
2023-06-22T07:11:42.545Z,60.02
2023-06-22T07:13:45.987Z,60.79
2023-06-22T07:15:49.476Z,60.57
2023-06-22T07:17:54.265Z,60.43
2023-06-22T07:19:57.827Z,60.32
2023-06-22T07:22:01.253Z,59.94
2023-06-22T07:24:06.993Z,59.26
2023-06-22T07:26:10.628Z,57.38
2023-06-22T07:28:13.990Z,55.56
2023-06-22T07:30:17.552Z,54.20
2023-06-22T07:32:20.962Z,54.27
2023-06-22T07:34:25.900Z,54.92
2023-06-22T07:36:31.370Z,55.28
2023-06-22T07:38:35.092Z,56.01
2023-06-22T07:40:39.391Z,55.87
2023-06-22T07:42:43.065Z,55.93
2023-06-22T07:44:47.296Z,56.28
2023-06-22T07:46:51.337Z,56.43
2023-06-22T07:48:56.848Z,56.72
2023-06-22T07:51:02.362Z,56.42
2023-06-22T07:53:06.374Z,56.52
2023-06-22T07:55:11.331Z,55.52
2023-06-22T07:57:15.231Z,54.86
2023-06-22T07:59:19.200Z,55.07
2023-06-22T08:01:23.579Z,56.81
2023-06-22T08:03:27.959Z,57.01
2023-06-22T08:05:32.403Z,57.27
2023-06-22T08:07:39.111Z,58.18
2023-06-22T08:09:51.099Z,58.77
2023-06-22T08:11:55.445Z,57.82
2023-06-22T08:14:00.091Z,57.06
2023-06-22T08:16:03.939Z,56.97
2023-06-22T08:18:08.202Z,56.24
2023-06-22T08:20:13.960Z,56.21
2023-06-22T08:22:20.353Z,55.62
2023-06-22T08:24:25.598Z,54.63
2023-06-22T08:26:30.214Z,54.80
2023-06-22T08:28:33.752Z,55.67
2023-06-22T08:30:38.032Z,55.30
2023-06-22T08:32:42.211Z,54.90
2023-06-22T08:34:46.893Z,55.15
2023-06-22T08:36:52.986Z,55.81
2023-06-22T08:39:02.783Z,56.74
2023-06-22T08:41:08.457Z,58.09
2023-06-22T08:43:12.457Z,58.75
2023-06-22T08:45:17.346Z,59.94
2023-06-22T08:47:21.988Z,60.71
2023-06-22T08:49:25.592Z,61.61
2023-06-22T08:51:30.637Z,61.86
2023-06-22T08:53:36.600Z,62.42
2023-06-22T08:55:40.601Z,63.22
2023-06-22T08:57:46.092Z,63.67
2023-06-22T08:59:50.351Z,64.69
2023-06-22T09:01:54.555Z,64.87
2023-06-22T09:03:59.788Z,64.86
2023-06-22T09:06:03.584Z,64.82
2023-06-22T09:08:07.586Z,65.06
2023-06-22T09:10:12.392Z,65.09
2023-06-22T09:12:15.892Z,64.70
2023-06-22T09:14:21.558Z,64.71
2023-06-22T09:16:25.383Z,64.19
2023-06-22T09:18:29.610Z,64.41
2023-06-22T09:20:33.876Z,63.95
2023-06-22T09:22:38.157Z,64.69
2023-06-22T09:24:41.963Z,64.60
2023-06-22T09:26:46.388Z,64.72
2023-06-22T09:28:50.389Z,64.44
2023-06-22T09:30:59.472Z,63.86
2023-06-22T09:33:03.682Z,63.56
2023-06-22T09:35:09.762Z,63.89
2023-06-22T09:37:13.822Z,64.19
2023-06-22T09:39:17.655Z,63.53
2023-06-22T09:41:21.549Z,63.09
2023-06-22T09:43:25.632Z,63.65
2023-06-22T09:45:29.427Z,63.89
2023-06-22T09:47:34.975Z,63.81
2023-06-22T09:49:47.814Z,63.18
2023-06-22T09:51:52.508Z,62.97
2023-06-22T09:53:56.781Z,63.14
2023-06-22T09:56:01.177Z,63.34
2023-06-22T09:58:05.098Z,63.06
2023-06-22T10:00:12.956Z,62.87
2023-06-22T10:02:16.853Z,62.85
2023-06-22T10:04:22.552Z,62.81
2023-06-22T10:06:27.476Z,61.78
2023-06-22T10:08:31.359Z,61.71
2023-06-22T10:10:35.576Z,61.75
2023-06-22T10:12:45.819Z,61.85
2023-06-22T10:14:49.771Z,61.64
2023-06-22T10:16:56.208Z,61.32
2023-06-22T10:19:00.992Z,61.16
2023-06-22T10:21:06.759Z,60.59
2023-06-22T10:23:10.664Z,60.89
2023-06-22T10:25:15.788Z,60.77
2023-06-22T10:27:20.120Z,60.76
2023-06-22T10:29:24.397Z,60.92
2023-06-22T10:31:28.808Z,61.24
2023-06-22T10:33:32.988Z,61.47
2023-06-22T10:35:38.817Z,61.14
2023-06-22T10:37:45.754Z,61.01
2023-06-22T10:39:49.613Z,61.66
2023-06-22T10:41:53.468Z,61.91
2023-06-22T10:43:57.772Z,62.18
2023-06-22T10:46:01.894Z,62.32
2023-06-22T10:48:06.447Z,62.17
2023-06-22T10:50:10.833Z,62.22
2023-06-22T10:52:15.139Z,62.59
2023-06-22T10:54:21.273Z,62.60
2023-06-22T10:56:25.452Z,62.47
2023-06-22T10:58:29.745Z,62.48
2023-06-22T11:00:34.278Z,62.66
2023-06-22T11:02:38.423Z,62.90
2023-06-22T11:04:42.612Z,63.86
2023-06-22T11:06:46.823Z,65.12
2023-06-22T11:09:04.274Z,65.81
2023-06-22T11:11:10.575Z,66.45
2023-06-22T11:13:14.885Z,67.05
2023-06-22T11:15:19.534Z,68.02
2023-06-22T11:17:23.446Z,68.73
2023-06-22T11:19:27.988Z,69.17
2023-06-22T11:21:32.522Z,69.44
2023-06-22T11:23:37.384Z,69.74
2023-06-22T11:25:43.861Z,70.08
2023-06-22T11:27:49.686Z,70.46
2023-06-22T11:29:54.950Z,70.87
2023-06-22T11:31:58.982Z,70.88
2023-06-22T11:34:03.849Z,71.21
2023-06-22T11:36:09.079Z,71.20
2023-06-22T11:38:13.529Z,71.27
2023-06-22T11:40:19.239Z,71.26
2023-06-22T11:42:24.800Z,71.11
2023-06-22T11:44:30.845Z,70.75
2023-06-22T11:46:36.385Z,69.83
2023-06-22T11:48:41.015Z,69.40
2023-06-22T11:50:45.334Z,69.59
2023-06-22T11:52:50.056Z,70.04
2023-06-22T11:54:54.115Z,69.56
2023-06-22T11:56:58.509Z,69.53
2023-06-22T11:59:02.840Z,70.09
2023-06-22T12:01:08.349Z,69.88
2023-06-22T12:03:12.709Z,69.46
2023-06-22T12:05:17.409Z,69.42
2023-06-22T12:07:21.478Z,69.95
2023-06-22T12:09:25.946Z,70.17
2023-06-22T12:11:30.139Z,70.36
2023-06-22T12:13:34.275Z,70.41
2023-06-22T12:15:38.546Z,70.78
2023-06-22T12:17:44.111Z,71.68
2023-06-22T12:19:48.390Z,72.22
2023-06-22T12:21:52.296Z,72.80
2023-06-22T12:23:56.447Z,72.59
2023-06-22T12:26:01.268Z,71.85
2023-06-22T12:28:05.856Z,71.47
2023-06-22T12:30:11.411Z,71.21
2023-06-22T12:32:15.838Z,70.63
2023-06-22T12:34:21.496Z,70.40
2023-06-22T12:36:26.172Z,70.55
2023-06-22T12:38:30.231Z,70.25
2023-06-22T12:40:34.654Z,70.27
2023-06-22T12:42:38.732Z,70.37
2023-06-22T12:44:43.154Z,70.40
2023-06-22T12:46:47.385Z,70.31
2023-06-22T12:48:51.208Z,70.32
2023-06-22T12:50:56.381Z,69.23
2023-06-22T12:53:01.380Z,68.96
2023-06-22T12:55:05.188Z,69.33
2023-06-22T12:57:09.468Z,68.86
2023-06-22T12:59:13.414Z,69.28
2023-06-22T13:01:19.496Z,69.10
2023-06-22T13:03:23.394Z,68.48
2023-06-22T13:05:27.245Z,68.77
2023-06-22T13:07:32.669Z,68.35
2023-06-22T13:09:36.700Z,67.68
2023-06-22T13:11:41.722Z,68.14
2023-06-22T13:13:47.615Z,69.08
2023-06-22T13:15:51.469Z,70.79
2023-06-22T13:17:55.202Z,71.74
2023-06-22T13:19:58.956Z,72.45
2023-06-22T13:22:03.887Z,73.61
2023-06-22T13:24:09.470Z,74.45
2023-06-22T13:26:13.152Z,74.63
2023-06-22T13:28:27.803Z,74.64
2023-06-22T13:30:33.471Z,75.33
2023-06-22T13:32:37.040Z,75.94
2023-06-22T13:34:40.874Z,75.55
2023-06-22T13:36:44.566Z,71.40
2023-06-22T13:38:48.628Z,71.16
2023-06-22T13:40:53.768Z,73.29
2023-06-22T13:42:57.832Z,71.89
2023-06-22T13:45:02.164Z,71.53
2023-06-22T13:47:06.988Z,72.57
2023-06-22T13:49:10.956Z,72.32
2023-06-22T13:51:14.673Z,71.81
2023-06-22T13:53:18.521Z,70.43
2023-06-22T13:55:22.398Z,69.37
2023-06-22T13:57:27.852Z,69.27
2023-06-22T13:59:32.204Z,68.03
2023-06-22T14:01:36.046Z,67.71
2023-06-22T14:03:39.870Z,66.53
2023-06-22T14:05:44.111Z,64.80
2023-06-22T14:07:48.276Z,64.04
2023-06-22T14:09:51.992Z,63.47
2023-06-22T14:11:57.301Z,63.60
2023-06-22T14:14:02.602Z,63.74
2023-06-22T14:16:07.317Z,64.04
2023-06-22T14:18:10.814Z,63.20
2023-06-22T14:20:14.823Z,62.03
2023-06-22T14:22:18.716Z,61.52
2023-06-22T14:24:25.374Z,61.21
2023-06-22T14:26:30.089Z,60.08
2023-06-22T14:28:33.672Z,60.03
2023-06-22T14:30:38.755Z,60.27
2023-06-22T14:32:42.675Z,61.39
2023-06-22T14:34:46.676Z,62.23
2023-06-22T14:36:50.973Z,63.66
2023-06-22T14:38:56.758Z,66.54
2023-06-22T14:41:13.272Z,69.85
2023-06-22T14:43:18.071Z,71.40
2023-06-22T14:45:21.728Z,72.04
2023-06-22T14:47:27.165Z,71.87
2023-06-22T14:49:30.975Z,71.97
2023-06-22T14:51:34.879Z,72.08
2023-06-22T14:53:38.472Z,72.87
2023-06-22T14:55:42.382Z,73.13
2023-06-22T14:57:46.001Z,72.61
2023-06-22T14:59:49.940Z,72.47
2023-06-22T15:01:54.027Z,72.83
2023-06-22T15:03:59.661Z,73.55
2023-06-22T15:06:03.656Z,74.10
2023-06-22T15:08:07.332Z,73.98
2023-06-22T15:10:12.536Z,73.32
2023-06-22T15:12:16.599Z,72.05
2023-06-22T15:14:20.505Z,70.05
2023-06-22T15:16:24.428Z,67.71
2023-06-22T15:18:28.260Z,66.57
2023-06-22T15:20:33.625Z,65.94
2023-06-22T15:22:37.757Z,65.19
2023-06-22T15:24:41.459Z,64.68
2023-06-22T15:26:45.169Z,64.03
2023-06-22T15:28:49.359Z,63.46
2023-06-22T15:30:53.328Z,63.17
2023-06-22T15:32:57.342Z,63.42
2023-06-22T15:35:01.423Z,63.22
2023-06-22T15:37:07.038Z,63.68
2023-06-22T15:39:11.079Z,64.06
2023-06-22T15:41:15.025Z,64.17
2023-06-22T15:43:18.690Z,63.80
2023-06-22T15:45:22.463Z,63.52
2023-06-22T15:47:26.140Z,63.13
2023-06-22T15:49:29.867Z,62.84
2023-06-22T15:51:33.502Z,62.90
2023-06-22T15:53:38.586Z,62.98
2023-06-22T15:55:42.225Z,62.92
2023-06-22T15:57:48.173Z,63.17
2023-06-22T15:59:51.990Z,63.60
2023-06-22T16:01:56.821Z,63.57
2023-06-22T16:04:00.543Z,63.47
2023-06-22T16:06:04.120Z,63.30
2023-06-22T16:08:12.773Z,63.48
2023-06-22T16:10:19.643Z,63.16
2023-06-22T16:12:23.414Z,63.00
2023-06-22T16:14:27.278Z,62.35
2023-06-22T16:16:30.890Z,62.14
2023-06-22T16:18:34.580Z,62.75
2023-06-22T16:20:38.789Z,65.40
2023-06-22T16:22:42.420Z,66.79
2023-06-22T16:24:45.998Z,68.04
2023-06-22T16:26:51.614Z,69.02
2023-06-22T16:28:55.427Z,69.67
2023-06-22T16:30:59.134Z,69.99
2023-06-22T16:33:03.864Z,70.13
2023-06-22T16:35:08.614Z,70.28
2023-06-22T16:37:12.339Z,69.90
2023-06-22T16:39:16.675Z,68.98
2023-06-22T16:41:20.572Z,68.54
2023-06-22T16:43:25.705Z,68.33
2023-06-22T16:45:29.696Z,68.52
2023-06-22T16:47:36.057Z,69.66
2023-06-22T16:49:40.108Z,70.03
2023-06-22T16:51:43.971Z,70.22
2023-06-22T16:53:49.096Z,70.76
2023-06-22T16:55:53.895Z,70.75
2023-06-22T16:57:58.509Z,71.21
2023-06-22T17:00:03.799Z,71.58
2023-06-22T17:02:13.963Z,71.76
2023-06-22T17:04:21.490Z,71.56
2023-06-22T17:06:25.424Z,72.21
2023-06-22T17:08:34.414Z,72.86
2023-06-22T17:10:38.636Z,72.93
2023-06-22T17:12:42.980Z,73.24
2023-06-22T17:14:47.267Z,73.52
2023-06-22T17:16:52.821Z,73.94
2023-06-22T17:21:06.626Z,74.77
2023-06-22T17:23:10.455Z,74.37
2023-06-22T17:25:16.538Z,74.78
2023-06-22T17:27:29.128Z,75.04
2023-06-22T17:29:34.227Z,75.15
2023-06-22T17:31:43.263Z,75.62
2023-06-22T17:33:51.798Z,75.49
2023-06-22T17:35:55.758Z,74.91
2023-06-22T17:38:01.414Z,74.89
2023-06-22T17:40:06.068Z,74.68
2023-06-22T17:42:09.782Z,74.58
2023-06-22T17:44:15.487Z,74.55
2023-06-22T17:46:19.269Z,74.75
2023-06-22T17:48:24.630Z,74.96
2023-06-22T17:50:29.921Z,74.63
2023-06-22T17:52:34.146Z,74.92
2023-06-22T17:54:40.117Z,74.82
2023-06-22T17:56:52.871Z,74.74
2023-06-22T17:58:57.008Z,74.65
2023-06-22T18:01:01.059Z,74.35
2023-06-22T18:03:05.368Z,74.22
2023-06-22T18:05:09.879Z,74.71
2023-06-22T18:07:15.727Z,74.86
2023-06-22T18:09:19.778Z,75.57
2023-06-22T18:11:28.085Z,75.41
2023-06-22T18:13:32.794Z,75.51
2023-06-22T18:15:38.583Z,75.03
2023-06-22T18:17:43.992Z,74.93
2023-06-22T18:19:49.881Z,74.71
2023-06-22T18:21:53.876Z,74.23
2023-06-22T18:23:59.884Z,73.98
2023-06-22T18:26:06.196Z,73.90
2023-06-22T18:28:12.569Z,74.52
2023-06-22T18:30:18.479Z,74.62
2023-06-22T18:32:22.956Z,74.64
2023-06-22T18:34:29.411Z,74.57
2023-06-22T18:36:39.428Z,73.76
2023-06-22T18:38:45.229Z,73.46
2023-06-22T18:40:54.011Z,73.05
2023-06-22T18:43:02.450Z,72.83
2023-06-22T18:45:25.814Z,72.81
2023-06-22T18:47:31.517Z,72.71
2023-06-22T18:49:47.545Z,73.30
2023-06-22T18:51:56.602Z,73.61
2023-06-22T18:54:08.363Z,73.82
2023-06-22T18:56:17.794Z,73.82
2023-06-22T18:58:27.458Z,73.81
2023-06-22T19:00:33.350Z,73.48
2023-06-22T19:02:43.964Z,73.46
2023-06-22T19:04:48.306Z,73.67
2023-06-22T19:06:58.568Z,73.60
2023-06-22T19:09:20.520Z,73.80
2023-06-22T19:11:30.140Z,74.09
2023-06-22T19:13:34.603Z,74.46
2023-06-22T19:15:39.488Z,74.71
2023-06-22T19:17:45.845Z,75.37
2023-06-22T19:19:49.934Z,75.63
2023-06-22T19:22:02.668Z,75.71
2023-06-22T19:24:07.127Z,75.90
2023-06-22T19:26:12.620Z,75.87
2023-06-22T19:28:18.154Z,76.35
2023-06-22T19:30:23.194Z,76.34
2023-06-22T19:32:28.084Z,76.13
2023-06-22T19:34:38.217Z,76.25
2023-06-22T19:36:42.528Z,76.57
2023-06-22T19:38:46.783Z,76.80
2023-06-22T19:40:51.187Z,77.20
2023-06-22T19:42:57.358Z,77.24
2023-06-22T19:45:05.285Z,77.30
2023-06-22T19:47:10.592Z,77.38
2023-06-22T19:49:18.516Z,77.06
2023-06-22T19:51:23.517Z,77.01
2023-06-22T19:53:27.306Z,76.91
2023-06-22T19:55:31.711Z,77.19
2023-06-22T19:57:39.154Z,77.41
2023-06-22T19:59:43.244Z,76.98
2023-06-22T20:01:49.042Z,77.13
2023-06-22T20:03:52.874Z,77.12
2023-06-22T20:05:57.039Z,77.65
2023-06-22T20:08:06.063Z,77.97
2023-06-22T20:10:15.501Z,78.78
2023-06-22T20:12:26.461Z,79.38
2023-06-22T20:14:33.869Z,79.44
2023-06-22T20:16:57.052Z,79.86
2023-06-22T20:19:07.859Z,80.78
2023-06-22T20:21:13.622Z,80.72
2023-06-22T20:23:22.047Z,81.59
2023-06-22T20:25:28.002Z,82.03
2023-06-22T20:27:32.252Z,81.56
2023-06-22T20:29:38.780Z,81.97
2023-06-22T20:31:43.886Z,81.58
2023-06-22T20:33:49.438Z,81.77
2023-06-22T20:35:53.759Z,81.45
2023-06-22T20:37:57.882Z,81.14
2023-06-22T20:40:01.840Z,80.56
2023-06-22T20:42:07.339Z,80.60
2023-06-22T20:44:12.132Z,80.43
2023-06-22T20:46:18.157Z,80.68
2023-06-22T20:48:36.973Z,81.09
2023-06-22T20:50:44.075Z,82.32
2023-06-22T20:52:48.693Z,82.94
2023-06-22T20:54:53.712Z,83.92
2023-06-22T20:56:57.520Z,83.76
2023-06-22T20:59:01.317Z,84.26
2023-06-22T21:01:05.016Z,83.95
2023-06-22T21:03:12.331Z,84.21
2023-06-22T21:05:16.621Z,84.61
2023-06-22T21:07:21.794Z,84.31
2023-06-22T21:09:28.023Z,84.86
2023-06-22T21:11:33.802Z,84.87
2023-06-22T21:13:37.662Z,85.17
2023-06-22T21:15:41.271Z,85.46
2023-06-22T21:17:45.191Z,85.73
2023-06-22T21:19:48.681Z,86.01
2023-06-22T21:21:52.665Z,86.37
2023-06-22T21:23:57.871Z,87.17
2023-06-22T21:26:01.691Z,86.90
2023-06-22T21:28:06.107Z,87.10
2023-06-22T21:30:11.875Z,86.95
2023-06-22T21:32:15.674Z,86.87
2023-06-22T21:34:19.435Z,86.23
2023-06-22T21:36:23.417Z,86.15
2023-06-22T21:38:27.028Z,86.00
2023-06-22T21:40:32.296Z,85.36
2023-06-22T21:42:36.352Z,85.80
2023-06-22T21:44:40.132Z,85.47
2023-06-22T21:46:44.141Z,85.90
2023-06-22T21:48:48.999Z,85.56
2023-06-22T21:50:53.261Z,85.57
2023-06-22T21:52:58.032Z,85.15
2023-06-22T21:55:01.894Z,85.57
2023-06-22T21:57:08.284Z,85.24
2023-06-22T21:59:12.875Z,84.80
2023-06-22T22:01:17.198Z,84.48
2023-06-22T22:03:21.983Z,83.82
2023-06-22T22:05:25.426Z,81.38
2023-06-22T22:07:31.695Z,82.06
2023-06-22T22:09:35.792Z,80.37
2023-06-22T22:11:39.872Z,79.41
2023-06-22T22:13:45.663Z,77.88
2023-06-22T22:15:50.464Z,75.83
2023-06-22T22:17:53.958Z,75.00
2023-06-22T22:19:58.294Z,74.77
2023-06-22T22:22:02.483Z,73.93
2023-06-22T22:24:06.171Z,72.71
2023-06-22T22:26:10.332Z,70.99
2023-06-22T22:28:14.180Z,69.95
2023-06-22T22:30:19.908Z,68.24
2023-06-22T22:32:23.848Z,67.74
2023-06-22T22:34:27.405Z,66.57
2023-06-22T22:36:31.197Z,66.33
2023-06-22T22:38:36.304Z,65.61
2023-06-22T22:40:40.081Z,64.81
2023-06-22T22:42:43.847Z,64.23
2023-06-22T22:44:47.558Z,63.79
2023-06-22T22:46:52.902Z,63.78
2023-06-22T22:48:56.793Z,63.58
2023-06-22T22:51:00.528Z,63.53
2023-06-22T22:53:05.466Z,63.31
2023-06-22T22:55:10.492Z,63.11
2023-06-22T22:57:14.478Z,63.40
2023-06-22T22:59:18.429Z,63.43
2023-06-22T23:01:22.460Z,63.63
2023-06-22T23:03:28.458Z,63.72
2023-06-22T23:05:32.361Z,63.96
2023-06-22T23:07:36.278Z,64.47
2023-06-22T23:09:40.154Z,64.45
2023-06-22T23:11:44.087Z,64.63
2023-06-22T23:13:47.947Z,64.97
2023-06-22T23:15:53.291Z,65.32
2023-06-22T23:17:57.189Z,65.66
2023-06-22T23:20:08.713Z,65.76
2023-06-22T23:22:12.773Z,66.08
2023-06-22T23:24:16.714Z,66.31
2023-06-22T23:26:20.609Z,66.62
2023-06-22T23:28:36.706Z,66.52
2023-06-22T23:30:42.019Z,66.67
2023-06-22T23:32:45.787Z,67.08
2023-06-22T23:34:49.794Z,67.17
2023-06-22T23:36:55.025Z,67.24
2023-06-22T23:38:58.742Z,67.83
2023-06-22T23:41:02.437Z,67.94
2023-06-22T23:43:09.486Z,67.96
2023-06-22T23:45:13.325Z,68.17
2023-06-22T23:47:17.080Z,68.26
2023-06-22T23:49:20.977Z,68.42
2023-06-22T23:51:25.205Z,68.76
2023-06-22T23:53:30.378Z,68.89
2023-06-22T23:55:34.590Z,69.25
2023-06-22T23:57:38.442Z,69.64
2023-06-22T23:59:46.549Z,69.60
